Time;durP1;ratioP1;P1;durP2;ratioP2;P2;SDS_P1;SDS_P2;PMS_P1;PMS_P2;Temp;Humidity;BMP_temperature;BMP_pressure;BME280_temperature;BME280_humidity;BME280_pressure;Samples;Min_cycle;Max_cycle;Signal;HPM_P1;HPM_P2
2024/04/04 00:01:46;;;;;;;4.07;3.37;;;12.60;99.90;;;;;;5115147;28;20495;-70
2024/04/04 00:04:12;;;;;;;4.63;3.00;;;12.50;99.90;;;;;;5114927;28;20495;-69
2024/04/04 00:06:38;;;;;;;3.30;3.00;;;12.50;99.90;;;;;;5114946;28;20532;-69
2024/04/04 00:09:04;;;;;;;3.10;2.90;;;12.50;99.90;;;;;;5115189;28;20276;-69
2024/04/04 00:11:31;;;;;;;3.63;3.43;;;12.40;99.90;;;;;;5114959;28;20979;-69
2024/04/04 00:13:57;;;;;;;6.13;2.70;;;12.50;99.90;;;;;;5114971;28;20356;-69
2024/04/04 00:16:24;;;;;;;3.63;3.07;;;12.50;99.90;;;;;;5114840;28;20884;-70
2024/04/04 00:18:49;;;;;;;4.40;3.00;;;12.50;99.90;;;;;;5114711;28;20188;-69
2024/04/04 00:21:16;;;;;;;2.87;2.67;;;12.40;99.90;;;;;;5114954;28;20449;-69
2024/04/04 00:23:41;;;;;;;3.17;2.80;;;12.50;99.90;;;;;;5114781;28;20242;-69
2024/04/04 00:26:08;;;;;;;2.63;2.43;;;12.40;99.90;;;;;;5114758;28;20545;-69
2024/04/04 00:28:34;;;;;;;2.93;2.73;;;12.40;99.90;;;;;;5114725;28;20183;-70
2024/04/04 00:31:01;;;;;;;3.03;2.73;;;12.50;99.90;;;;;;5114529;28;20461;-70
2024/04/04 00:33:27;;;;;;;4.47;3.10;;;12.50;99.90;;;;;;5114406;28;20448;-69
2024/04/04 00:35:53;;;;;;;2.63;2.43;;;12.50;99.90;;;;;;5114640;28;20454;-69
2024/04/04 00:38:19;;;;;;;2.63;2.43;;;12.60;99.90;;;;;;5114588;28;20283;-69
2024/04/04 00:40:45;;;;;;;2.50;2.30;;;12.60;99.90;;;;;;5114402;28;20537;-69
2024/04/04 00:43:11;;;;;;;2.33;2.23;;;12.60;99.90;;;;;;5114684;28;20200;-69
2024/04/04 00:45:39;;;;;;;3.17;2.30;;;12.60;99.90;;;;;;5114012;28;20667;-69
2024/04/04 00:48:05;;;;;;;2.83;2.57;;;12.60;99.90;;;;;;5114169;28;20192;-69
2024/04/04 00:50:32;;;;;;;2.53;2.40;;;12.60;99.90;;;;;;5114391;28;20696;-69
2024/04/04 00:52:58;;;;;;;2.93;2.20;;;12.60;99.90;;;;;;5114260;28;20473;-69
2024/04/04 00:55:24;;;;;;;2.70;2.17;;;12.60;99.90;;;;;;5114169;28;20535;-70
2024/04/04 00:57:52;;;;;;;3.70;2.50;;;12.60;99.90;;;;;;5114076;28;20184;-70
2024/04/04 01:00:18;;;;;;;3.43;2.30;;;12.60;99.90;;;;;;5114015;28;20446;-69
2024/04/04 01:02:45;;;;;;;2.57;2.37;;;12.60;99.90;;;;;;5114151;28;20437;-70
2024/04/04 01:05:15;;;;;;;2.00;1.83;;;12.50;99.90;;;;;;5113599;28;20969;-69
2024/04/04 01:07:41;;;;;;;4.50;2.20;;;12.50;99.90;;;;;;5114007;28;21015;-69
2024/04/04 01:10:09;;;;;;;2.20;2.00;;;12.50;99.90;;;;;;5113882;28;20487;-69
2024/04/04 01:12:34;;;;;;;1.97;1.87;;;12.50;99.90;;;;;;5113865;28;20450;-69
2024/04/04 01:15:01;;;;;;;2.10;1.90;;;12.50;99.90;;;;;;5113712;28;21015;-69
2024/04/04 01:17:27;;;;;;;2.27;1.90;;;12.50;99.90;;;;;;5113717;28;20222;-70
2024/04/04 01:19:55;;;;;;;2.03;1.93;;;12.50;99.90;;;;;;5113671;28;20961;-69
2024/04/04 01:22:20;;;;;;;2.50;2.30;;;12.50;99.90;;;;;;5113736;28;20533;-69
2024/04/04 01:24:48;;;;;;;2.23;1.70;;;12.50;99.90;;;;;;5113620;28;20583;-69
2024/04/04 01:27:14;;;;;;;1.77;1.67;;;12.40;99.90;;;;;;5114072;28;20448;-69
2024/04/04 01:29:40;;;;;;;2.60;2.00;;;12.40;99.90;;;;;;5113495;28;20545;-69
2024/04/04 01:32:06;;;;;;;1.70;1.60;;;12.40;99.90;;;;;;5114114;28;20278;-69
2024/04/04 01:34:32;;;;;;;2.03;1.60;;;12.30;99.90;;;;;;5113441;28;20545;-70
2024/04/04 01:36:58;;;;;;;2.00;1.53;;;12.30;99.90;;;;;;5113587;28;20271;-69
2024/04/04 01:39:26;;;;;;;3.50;1.63;;;12.20;99.90;;;;;;5113603;28;20457;-69
2024/04/04 01:41:54;;;;;;;1.60;1.50;;;12.30;99.90;;;;;;5113476;28;20281;-69
2024/04/04 01:44:21;;;;;;;1.40;1.30;;;12.20;99.90;;;;;;5113298;28;20473;-69
2024/04/04 01:46:46;;;;;;;2.13;1.50;;;12.30;99.90;;;;;;5113324;28;20976;-69
2024/04/04 01:49:13;;;;;;;1.90;1.23;;;12.30;99.90;;;;;;5113542;28;20450;-70
2024/04/04 01:51:38;;;;;;;2.20;1.63;;;12.40;99.90;;;;;;5113535;28;20194;-69
2024/04/04 01:54:05;;;;;;;1.30;1.20;;;12.40;99.90;;;;;;5113339;28;20855;-70
2024/04/04 01:56:31;;;;;;;1.40;1.30;;;12.40;99.90;;;;;;5113338;28;20192;-69
2024/04/04 01:58:58;;;;;;;3.30;1.53;;;12.40;99.90;;;;;;5113204;28;20468;-69
2024/04/04 02:01:24;;;;;;;1.27;1.17;;;12.30;99.90;;;;;;5113318;28;20714;-69
2024/04/04 02:03:50;;;;;;;1.23;1.13;;;12.30;99.90;;;;;;5113339;28;20538;-69
2024/04/04 02:06:16;;;;;;;3.00;1.10;;;12.40;99.90;;;;;;5113322;28;20271;-69
2024/04/04 02:08:42;;;;;;;1.77;1.10;;;12.40;99.90;;;;;;5113220;28;20485;-69
2024/04/04 02:11:08;;;;;;;2.03;1.20;;;12.40;99.90;;;;;;5113244;28;20284;-70
2024/04/04 02:13:35;;;;;;;2.40;1.10;;;12.50;99.90;;;;;;5112991;28;20540;-69
2024/04/04 02:16:03;;;;;;;1.10;1.00;;;12.50;99.90;;;;;;5114022;28;20294;-69
2024/04/04 02:18:29;;;;;;;1.40;1.30;;;12.50;99.90;;;;;;5117288;28;20451;-69
2024/04/04 02:20:55;;;;;;;2.03;1.53;;;12.50;99.90;;;;;;5117304;28;20877;-69
2024/04/04 02:23:21;;;;;;;1.70;1.37;;;12.50;99.90;;;;;;5117143;28;20542;-69
2024/04/04 02:25:47;;;;;;;4.13;1.10;;;12.50;99.90;;;;;;5116990;28;20303;-69
2024/04/04 02:28:13;;;;;;;1.53;1.07;;;12.60;99.90;;;;;;5117315;28;20481;-70
2024/04/04 02:30:39;;;;;;;1.23;1.13;;;12.60;99.90;;;;;;5117130;28;20241;-68
2024/04/04 02:33:07;;;;;;;1.70;1.00;;;12.60;99.90;;;;;;5117092;28;20453;-68
2024/04/04 02:35:33;;;;;;;1.33;1.23;;;12.60;99.90;;;;;;5117059;28;20862;-68
2024/04/04 02:37:59;;;;;;;1.20;1.10;;;12.60;99.90;;;;;;5116721;28;20545;-68
2024/04/04 02:40:25;;;;;;;1.67;1.10;;;12.50;99.90;;;;;;5116974;28;20231;-68
2024/04/04 02:42:52;;;;;;;1.40;1.30;;;12.40;99.90;;;;;;5116866;28;20485;-69
2024/04/04 02:45:18;;;;;;;1.17;1.07;;;12.40;99.90;;;;;;5116744;28;20220;-68
2024/04/04 02:47:44;;;;;;;1.30;1.20;;;12.40;99.90;;;;;;5116643;28;20685;-68
2024/04/04 02:50:12;;;;;;;1.37;1.27;;;12.40;99.90;;;;;;5116595;28;20532;-68
2024/04/04 02:52:38;;;;;;;1.30;1.20;;;12.30;99.90;;;;;;5116495;28;20453;-69
2024/04/04 02:55:04;;;;;;;1.50;1.40;;;12.30;99.90;;;;;;5116456;28;20541;-68
2024/04/04 02:57:32;;;;;;;1.20;1.10;;;12.40;99.90;;;;;;5116626;28;20918;-68
2024/04/04 02:59:57;;;;;;;1.30;1.20;;;12.30;99.90;;;;;;5116598;28;20448;-68
2024/04/04 03:02:24;;;;;;;1.50;1.23;;;12.40;99.90;;;;;;5116246;28;20887;-70
2024/04/04 03:04:50;;;;;;;1.10;1.00;;;12.40;99.90;;;;;;5116579;28;20251;-70
2024/04/04 03:07:17;;;;;;;1.50;1.40;;;12.40;99.90;;;;;;5116318;28;20481;-69
2024/04/04 03:09:43;;;;;;;1.50;1.40;;;12.50;99.90;;;;;;5116159;28;20190;-68
2024/04/04 03:12:09;;;;;;;1.40;1.30;;;12.40;99.90;;;;;;5116298;28;20888;-68
2024/04/04 03:14:35;;;;;;;1.33;1.23;;;12.50;99.90;;;;;;5116232;28;20286;-68
2024/04/04 03:17:01;;;;;;;2.80;1.27;;;12.50;99.90;;;;;;5116087;28;20489;-68
2024/04/04 03:19:27;;;;;;;1.37;1.27;;;12.50;99.90;;;;;;5116099;28;20283;-69
2024/04/04 03:21:53;;;;;;;1.43;1.33;;;12.40;99.90;;;;;;5115864;28;20528;-68
2024/04/04 03:24:20;;;;;;;1.80;1.70;;;12.40;99.90;;;;;;5115675;28;20212;-69
2024/04/04 03:26:47;;;;;;;1.67;1.57;;;12.30;99.90;;;;;;5115705;28;21031;-68
2024/04/04 03:29:12;;;;;;;1.60;1.50;;;12.30;99.90;;;;;;5115802;28;20479;-69
2024/04/04 03:31:39;;;;;;;2.63;1.60;;;12.40;99.90;;;;;;5115831;28;20457;-68
2024/04/04 03:34:04;;;;;;;1.60;1.50;;;12.40;99.90;;;;;;5115685;28;20641;-68
2024/04/04 03:36:31;;;;;;;1.53;1.43;;;12.40;99.90;;;;;;5115624;28;20456;-68
2024/04/04 03:38:58;;;;;;;1.67;1.50;;;12.50;99.90;;;;;;5115813;28;20198;-69
2024/04/04 03:41:26;;;;;;;3.33;1.60;;;12.40;99.90;;;;;;5115749;28;20791;-69
2024/04/04 03:43:53;;;;;;;1.67;1.57;;;12.40;99.90;;;;;;5115666;28;20441;-69
2024/04/04 03:46:18;;;;;;;1.77;1.67;;;12.40;99.90;;;;;;5115270;28;20930;-68
2024/04/04 03:48:45;;;;;;;1.80;1.67;;;12.40;99.90;;;;;;5115397;28;20533;-69
2024/04/04 03:51:11;;;;;;;1.80;1.70;;;12.40;99.90;;;;;;5115432;27;20233;-69
2024/04/04 03:53:38;;;;;;;1.53;1.37;;;12.40;99.90;;;;;;5115193;28;20453;-68
2024/04/04 03:56:03;;;;;;;1.83;1.73;;;12.40;99.90;;;;;;5115232;28;20955;-69
2024/04/04 03:58:31;;;;;;;1.53;1.40;;;12.40;99.90;;;;;;5115260;28;20544;-68
2024/04/04 04:00:57;;;;;;;1.77;1.67;;;12.40;99.90;;;;;;5115199;28;20283;-68
2024/04/04 04:03:23;;;;;;;1.97;1.60;;;12.30;99.90;;;;;;5115135;28;20968;-68
2024/04/04 04:05:49;;;;;;;1.87;1.73;;;12.30;99.90;;;;;;5115609;28;20216;-68
2024/04/04 04:08:15;;;;;;;4.93;1.60;;;12.20;99.90;;;;;;5115469;28;20549;-69
2024/04/04 04:10:41;;;;;;;1.70;1.60;;;12.20;99.90;;;;;;5115133;28;20220;-68
2024/04/04 04:13:08;;;;;;;1.60;1.50;;;12.10;99.90;;;;;;5115032;28;20849;-68
2024/04/04 04:15:36;;;;;;;1.40;1.30;;;12.10;99.90;;;;;;5114872;28;20676;-69
2024/04/04 04:18:01;;;;;;;2.20;2.10;;;12.10;99.90;;;;;;5114833;28;20442;-68
2024/04/04 04:23:14;;;;;;;2.20;1.97;;;12.10;99.90;;;;;;5114761;28;20256;-69
2024/04/04 04:25:39;;;;;;;1.80;1.70;;;12.10;99.90;;;;;;5114699;28;20485;-70
2024/04/04 04:28:07;;;;;;;1.80;1.70;;;12.10;99.90;;;;;;5114694;28;20548;-68
2024/04/04 04:30:34;;;;;;;2.00;1.90;;;12.10;99.90;;;;;;5114568;28;20232;-69
2024/04/04 04:33:01;;;;;;;2.90;2.20;;;12.10;99.90;;;;;;5114492;28;20767;-69
2024/04/04 04:35:27;;;;;;;2.00;1.90;;;12.00;99.90;;;;;;5114594;28;20452;-68
2024/04/04 04:37:54;;;;;;;2.00;1.83;;;12.00;99.90;;;;;;5114545;28;20944;-68
2024/04/04 04:40:19;;;;;;;2.30;2.20;;;12.10;99.90;;;;;;5113800;28;20214;-69
2024/04/04 04:42:46;;;;;;;2.43;2.23;;;12.10;99.90;;;;;;5114363;28;20449;-68
2024/04/04 04:45:12;;;;;;;2.40;2.20;;;12.10;99.90;;;;;;5114453;28;20226;-69
2024/04/04 04:47:40;;;;;;;3.20;2.90;;;12.10;99.90;;;;;;5114282;28;20474;-68
2024/04/04 04:50:06;;;;;;;2.20;2.10;;;12.10;99.90;;;;;;5114409;28;20441;-68
2024/04/04 04:52:32;;;;;;;2.30;2.00;;;12.10;99.90;;;;;;5114231;28;20544;-68
2024/04/04 04:54:58;;;;;;;2.40;2.20;;;12.10;99.90;;;;;;5114159;28;20533;-68
2024/04/04 04:57:24;;;;;;;2.10;2.00;;;12.00;99.90;;;;;;5114074;28;20887;-69
2024/04/04 04:59:50;;;;;;;2.60;2.40;;;12.10;99.90;;;;;;5113993;28;20274;-69
2024/04/04 05:02:18;;;;;;;2.53;2.33;;;12.10;99.90;;;;;;5113862;28;20898;-68
2024/04/04 05:04:45;;;;;;;3.07;2.87;;;12.10;99.90;;;;;;5113765;28;20751;-69
2024/04/04 05:07:12;;;;;;;2.70;2.60;;;12.10;99.90;;;;;;5114041;28;20876;-69
2024/04/04 05:09:37;;;;;;;2.30;2.20;;;12.10;99.90;;;;;;5113988;28;20465;-68
2024/04/04 05:12:05;;;;;;;3.00;2.80;;;12.10;99.90;;;;;;5113770;28;20878;-69
2024/04/04 05:14:30;;;;;;;2.70;2.50;;;12.10;99.90;;;;;;5113743;28;20187;-69
2024/04/04 05:16:58;;;;;;;2.57;2.37;;;12.20;99.90;;;;;;5113572;28;20561;-69
2024/04/04 05:19:23;;;;;;;3.90;2.70;;;12.20;99.90;;;;;;5113805;28;20188;-68
2024/04/04 05:21:51;;;;;;;2.40;2.30;;;12.20;99.90;;;;;;5114017;28;20510;-69
2024/04/04 05:24:17;;;;;;;3.00;2.70;;;12.10;99.90;;;;;;5113640;28;20585;-69
2024/04/04 05:26:43;;;;;;;4.20;2.27;;;12.20;99.90;;;;;;5113369;28;20488;-69
2024/04/04 05:29:12;;;;;;;2.97;2.67;;;12.20;99.90;;;;;;5113520;28;20215;-69
2024/04/04 05:31:38;;;;;;;2.27;2.17;;;12.10;99.90;;;;;;5113768;28;20847;-68
2024/04/04 05:34:04;;;;;;;2.37;2.23;;;12.10;99.90;;;;;;5113667;28;20449;-69
2024/04/04 05:36:30;;;;;;;2.53;2.33;;;12.20;99.90;;;;;;5113549;28;20813;-68
2024/04/04 05:38:57;;;;;;;3.90;2.57;;;12.30;99.90;;;;;;5113554;28;20188;-69
2024/04/04 05:41:24;;;;;;;2.13;2.00;;;12.30;99.90;;;;;;5113408;28;20468;-68
2024/04/04 05:43:49;;;;;;;2.03;1.93;;;12.40;99.90;;;;;;5113184;28;20833;-69
2024/04/04 05:46:15;;;;;;;3.00;2.37;;;12.40;99.90;;;;;;5113106;28;20581;-69
2024/04/04 05:48:41;;;;;;;2.33;2.23;;;12.50;99.90;;;;;;5113307;28;20192;-69
2024/04/04 05:51:08;;;;;;;4.00;2.13;;;12.60;99.90;;;;;;5116037;28;21047;-69
2024/04/04 05:53:33;;;;;;;4.27;3.80;;;12.60;99.90;;;;;;5117484;28;20537;-69
2024/04/04 05:56:01;;;;;;;2.20;2.10;;;12.60;99.90;;;;;;5117453;28;20553;-69
2024/04/04 05:58:27;;;;;;;2.57;2.37;;;12.70;99.90;;;;;;5117324;28;20618;-69
2024/04/04 06:00:53;;;;;;;2.20;2.10;;;12.70;99.90;;;;;;5117575;28;20540;-69
2024/04/04 06:03:19;;;;;;;2.27;2.13;;;12.70;99.90;;;;;;5117590;28;20214;-69
2024/04/04 06:05:45;;;;;;;2.10;2.00;;;12.70;99.90;;;;;;5117255;28;20564;-69
2024/04/04 06:08:11;;;;;;;2.20;2.10;;;12.70;99.90;;;;;;5117611;28;20665;-69
2024/04/04 06:10:38;;;;;;;2.53;2.20;;;12.70;99.90;;;;;;5117117;28;20455;-69
2024/04/04 06:13:05;;;;;;;2.40;2.30;;;12.80;99.90;;;;;;5117085;28;20214;-69
2024/04/04 06:15:31;;;;;;;2.23;1.70;;;12.80;99.90;;;;;;5117366;28;20445;-69
2024/04/04 06:17:57;;;;;;;2.40;2.17;;;12.90;99.90;;;;;;5117268;28;20441;-69
2024/04/04 06:20:24;;;;;;;2.20;2.00;;;13.00;99.90;;;;;;5117192;28;20454;-69
2024/04/04 06:22:49;;;;;;;3.40;2.10;;;13.00;99.90;;;;;;5117083;27;20219;-69
2024/04/04 06:25:17;;;;;;;1.70;1.60;;;13.00;99.90;;;;;;5116770;28;20509;-69
2024/04/04 06:27:42;;;;;;;1.77;1.67;;;13.10;99.90;;;;;;5116827;28;20192;-69
2024/04/04 06:30:11;;;;;;;2.83;1.80;;;13.10;99.90;;;;;;5117018;28;20805;-69
2024/04/04 06:32:37;;;;;;;3.47;2.10;;;13.20;99.90;;;;;;5116733;28;20635;-69
2024/04/04 06:35:03;;;;;;;1.80;1.70;;;13.30;99.90;;;;;;5116828;28;20460;-69
2024/04/04 06:37:30;;;;;;;3.30;3.10;;;13.40;99.90;;;;;;5116685;28;20622;-69
2024/04/04 06:39:57;;;;;;;3.50;2.10;;;13.50;99.90;;;;;;5116404;28;20449;-69
2024/04/04 06:42:22;;;;;;;2.30;2.13;;;13.80;99.90;;;;;;5116542;28;20536;-69
2024/04/04 06:44:49;;;;;;;1.83;1.73;;;14.00;99.90;;;;;;5116678;28;20530;-69
2024/04/04 06:47:16;;;;;;;3.93;2.00;;;14.30;99.90;;;;;;5116276;28;20220;-69
2024/04/04 06:49:42;;;;;;;2.50;2.30;;;14.60;99.90;;;;;;5116487;28;20460;-69
2024/04/04 06:52:08;;;;;;;2.67;2.43;;;14.80;99.90;;;;;;5116001;28;20545;-69
2024/04/04 06:54:34;;;;;;;2.90;2.00;;;14.70;99.90;;;;;;5116348;28;20544;-69
2024/04/04 06:57:01;;;;;;;2.10;2.00;;;14.80;99.90;;;;;;5116216;28;20280;-69
2024/04/04 06:59:26;;;;;;;1.90;1.80;;;15.00;99.90;;;;;;5116382;28;20446;-69
2024/04/04 07:01:53;;;;;;;2.30;2.10;;;15.20;99.90;;;;;;5115568;28;20536;-69
2024/04/04 07:04:20;;;;;;;3.23;2.17;;;15.30;99.90;;;;;;5116272;28;20266;-69
2024/04/04 07:06:46;;;;;;;2.43;2.20;;;15.30;99.90;;;;;;5116110;28;20580;-70
2024/04/04 07:09:12;;;;;;;2.07;1.90;;;15.30;99.90;;;;;;5116033;28;20536;-69
2024/04/04 07:11:39;;;;;;;4.23;2.03;;;15.40;99.90;;;;;;5115973;28;20547;-69
2024/04/04 07:14:05;;;;;;;3.13;2.20;;;15.50;99.90;;;;;;5116165;28;20184;-69
2024/04/04 07:16:31;;;;;;;2.67;2.10;;;15.60;99.90;;;;;;5116051;28;21000;-69
2024/04/04 07:18:57;;;;;;;2.77;2.10;;;15.70;99.90;;;;;;5116045;28;20275;-69
2024/04/04 07:21:25;;;;;;;4.80;2.03;;;15.60;99.90;;;;;;5115870;28;20488;-69
2024/04/04 07:23:50;;;;;;;2.00;1.90;;;15.50;99.90;;;;;;5115629;28;20218;-69
2024/04/04 07:26:17;;;;;;;2.17;2.07;;;15.60;99.90;;;;;;5115832;28;20511;-69
2024/04/04 07:28:42;;;;;;;2.13;1.90;;;15.60;99.90;;;;;;5115851;28;20197;-69
2024/04/04 07:31:09;;;;;;;2.27;2.07;;;15.60;99.90;;;;;;5115735;28;20884;-69
2024/04/04 07:33:34;;;;;;;2.43;2.23;;;15.70;99.90;;;;;;5115954;28;20193;-69
2024/04/04 07:36:01;;;;;;;2.57;1.60;;;15.70;99.90;;;;;;5115649;28;20872;-69
2024/04/04 07:38:28;;;;;;;2.23;1.50;;;15.80;99.90;;;;;;5115144;28;20183;-71
2024/04/04 07:40:54;;;;;;;2.60;1.53;;;15.90;99.90;;;;;;5115393;28;20786;-71
2024/04/04 07:43:20;;;;;;;3.53;1.50;;;16.00;99.90;;;;;;5116042;28;20981;-69
2024/04/04 07:45:46;;;;;;;2.20;1.53;;;16.00;99.90;;;;;;5115252;28;20572;-68
2024/04/04 07:48:14;;;;;;;1.67;1.50;;;16.00;99.90;;;;;;5115574;28;20195;-68
2024/04/04 07:50:41;;;;;;;2.37;1.70;;;16.10;99.90;;;;;;5115271;28;20540;-68
2024/04/04 07:53:08;;;;;;;2.43;1.80;;;16.10;99.90;;;;;;5115139;28;20446;-68
2024/04/04 07:55:36;;;;;;;2.17;1.50;;;16.10;99.90;;;;;;5115515;28;20812;-68
2024/04/04 07:58:01;;;;;;;2.43;1.80;;;16.20;99.90;;;;;;5115256;28;20449;-68
2024/04/04 08:00:29;;;;;;;3.60;1.40;;;16.20;99.90;;;;;;5115412;28;20995;-69
2024/04/04 08:02:55;;;;;;;1.80;1.67;;;16.20;99.90;;;;;;5115090;28;20604;-68
2024/04/04 08:05:22;;;;;;;3.03;1.87;;;16.10;99.90;;;;;;5115108;28;20477;-70
2024/04/04 08:07:47;;;;;;;1.60;1.50;;;16.00;99.90;;;;;;5114880;28;20886;-70
2024/04/04 08:10:15;;;;;;;1.73;1.50;;;16.00;99.90;;;;;;5114426;28;20549;-70
2024/04/04 08:12:43;;;;;;;2.70;1.50;;;16.10;99.90;;;;;;5114938;28;20192;-68
2024/04/04 08:15:12;;;;;;;3.93;2.00;;;16.20;99.90;;;;;;5113880;28;20740;-70
2024/04/04 08:17:40;;;;;;;3.57;1.63;;;16.30;99.90;;;;;;5114803;28;20441;-71
2024/04/04 08:20:08;;;;;;;2.10;1.27;;;16.40;99.90;;;;;;5114653;28;20474;-70
2024/04/04 08:22:34;;;;;;;1.40;1.23;;;16.40;99.90;;;;;;5114948;28;20438;-71
2024/04/04 08:25:00;;;;;;;1.60;1.27;;;16.40;99.90;;;;;;5114742;28;20550;-70
2024/04/04 08:27:26;;;;;;;1.90;1.40;;;16.40;99.90;;;;;;5114668;28;20692;-70
2024/04/04 08:29:53;;;;;;;1.90;1.70;;;16.20;99.90;;;;;;5114558;28;20537;-71
2024/04/04 08:32:19;;;;;;;1.63;1.17;;;16.20;99.90;;;;;;5114514;28;20214;-70
2024/04/04 08:34:45;;;;;;;1.20;1.10;;;16.30;99.90;;;;;;5114332;28;20492;-70
2024/04/04 08:37:11;;;;;;;2.10;1.20;;;16.50;99.90;;;;;;5114625;28;20187;-70
2024/04/04 08:39:38;;;;;;;2.77;1.40;;;16.50;99.90;;;;;;5114517;28;20549;-69
2024/04/04 08:42:04;;;;;;;2.60;1.30;;;16.50;99.90;;;;;;5114353;28;20199;-69
2024/04/04 08:44:32;;;;;;;2.20;1.40;;;16.60;99.90;;;;;;5114191;28;20450;-69
2024/04/04 08:47:00;;;;;;;3.20;1.63;;;16.70;99.90;;;;;;5114055;28;20488;-63
2024/04/04 08:49:27;;;;;;;2.33;1.30;;;16.60;99.90;;;;;;5113621;28;20449;-65
2024/04/04 08:51:53;;;;;;;2.13;1.10;;;16.50;99.90;;;;;;5113936;28;20536;-69
2024/04/04 08:54:21;;;;;;;1.30;0.90;;;16.60;99.90;;;;;;5114151;28;21044;-68
2024/04/04 08:56:46;;;;;;;3.90;1.30;;;16.80;99.90;;;;;;5114014;28;20195;-67
2024/04/04 08:59:13;;;;;;;1.57;1.20;;;16.90;99.90;;;;;;5113988;28;20457;-66
2024/04/04 09:01:38;;;;;;;1.70;1.20;;;16.90;99.90;;;;;;5113793;28;20442;-69
2024/04/04 09:04:06;;;;;;;2.00;1.30;;;17.00;99.90;;;;;;5113728;28;20983;-68
2024/04/04 09:06:32;;;;;;;1.83;1.40;;;16.80;99.90;;;;;;5113895;28;20229;-69
2024/04/04 09:08:59;;;;;;;2.10;1.40;;;17.00;99.90;;;;;;5113881;28;20537;-66
2024/04/04 09:11:25;;;;;;;3.30;1.20;;;16.70;99.90;;;;;;5113631;28;20502;-69
2024/04/04 09:14:02;;;;;;;1.63;1.20;;;16.60;99.90;;;;;;5113567;28;20449;-68
2024/04/04 09:16:28;;;;;;;1.57;1.00;;;16.50;99.90;;;;;;5113545;28;21007;-68
2024/04/04 09:18:55;;;;;;;2.50;0.93;;;16.50;99.90;;;;;;5113984;28;20485;-68
2024/04/04 09:21:24;;;;;;;1.33;1.10;;;16.40;99.90;;;;;;5113466;28;20191;-68
2024/04/04 09:23:51;;;;;;;3.93;1.17;;;16.40;99.90;;;;;;5113599;28;20463;-69
2024/04/04 09:26:16;;;;;;;2.27;1.70;;;16.40;99.90;;;;;;5113012;28;20913;-68
2024/04/04 09:28:43;;;;;;;2.33;1.10;;;16.70;99.90;;;;;;5113242;28;20560;-66
2024/04/04 09:31:10;;;;;;;0.90;0.77;;;16.70;99.90;;;;;;5113350;28;20287;-66
2024/04/04 09:33:37;;;;;;;2.03;1.07;;;16.70;99.90;;;;;;5113809;28;20456;-63
2024/04/04 09:36:04;;;;;;;1.10;1.00;;;16.90;99.90;;;;;;5113356;28;20549;-64
2024/04/04 09:38:32;;;;;;;3.30;1.10;;;17.10;99.90;;;;;;5113189;28;20548;-64
2024/04/04 09:41:00;;;;;;;1.10;1.00;;;17.00;99.90;;;;;;5113187;28;20537;-66
2024/04/04 09:43:27;;;;;;;2.07;1.10;;;17.20;99.90;;;;;;5113096;28;20456;-69
2024/04/04 09:45:54;;;;;;;1.67;1.00;;;17.50;99.90;;;;;;5113114;28;20567;-69
2024/04/04 09:48:22;;;;;;;1.63;0.80;;;17.70;99.90;;;;;;5113384;28;20448;-65
2024/04/04 09:50:47;;;;;;;4.60;1.00;;;17.60;99.90;;;;;;5112852;28;20452;-66
2024/04/04 09:53:14;;;;;;;2.60;1.10;;;17.60;99.90;;;;;;5113185;28;21003;-67
2024/04/04 09:55:43;;;;;;;1.93;0.80;;;17.70;99.90;;;;;;5113433;28;20192;-63
2024/04/04 09:58:10;;;;;;;3.27;1.00;;;17.70;99.90;;;;;;5113083;28;20446;-69
2024/04/04 10:00:40;;;;;;;1.47;0.90;;;17.60;99.90;;;;;;5113061;28;20524;-69
2024/04/04 10:03:12;;;;;;;2.90;1.00;;;17.60;99.90;;;;;;5113411;28;20545;-70
2024/04/04 10:05:38;;;;;;;1.83;1.00;;;17.70;99.90;;;;;;5113107;28;20442;-70
2024/04/04 10:08:09;;;;;;;4.63;0.87;;;17.80;99.90;;;;;;5113129;28;20884;-69
2024/04/04 10:10:35;;;;;;;0.80;0.80;;;17.90;99.90;;;;;;5112902;28;20445;-69
2024/04/04 10:13:07;;;;;;;3.47;0.87;;;17.70;99.90;;;;;;5113238;28;20800;-68
2024/04/04 10:15:42;;;;;;;1.70;1.20;;;17.50;99.90;;;;;;5112956;28;20505;-68
2024/04/04 10:18:10;;;;;;;1.33;0.70;;;17.50;99.90;;;;;;5112462;28;20460;-69
2024/04/04 10:20:35;;;;;;;3.73;0.70;;;17.60;99.90;;;;;;5112553;28;20539;-68
2024/04/04 10:23:05;;;;;;;1.07;0.70;;;17.60;99.90;;;;;;5112652;28;20482;-69
2024/04/04 10:25:30;;;;;;;1.00;0.90;;;17.40;99.90;;;;;;5113005;28;20195;-69
2024/04/04 10:28:04;;;;;;;1.33;0.80;;;17.30;99.90;;;;;;5113143;28;20449;-69
2024/04/04 10:30:35;;;;;;;2.60;0.90;;;17.00;99.90;;;;;;5112982;28;20191;-69
2024/04/04 10:33:06;;;;;;;3.90;0.90;;;16.90;99.90;;;;;;5112918;28;20523;-70
2024/04/04 10:35:32;;;;;;;3.97;0.93;;;16.80;99.90;;;;;;5112887;28;20888;-69
2024/04/04 10:38:07;;;;;;;2.30;0.87;;;16.60;99.90;;;;;;5115106;28;20544;-69
2024/04/04 10:40:33;;;;;;;1.50;0.70;;;16.70;99.90;;;;;;5116724;28;20194;-69
2024/04/04 10:42:59;;;;;;;4.30;1.00;;;16.70;99.90;;;;;;5116697;28;20461;-69
2024/04/04 10:45:28;;;;;;;4.33;1.00;;;16.70;99.90;;;;;;5116629;28;20187;-68
2024/04/04 10:47:57;;;;;;;1.53;0.73;;;16.70;99.90;;;;;;5116492;28;20457;-69
2024/04/04 10:50:24;;;;;;;2.30;1.00;;;16.90;99.90;;;;;;5116415;28;20532;-69
2024/04/04 10:52:51;;;;;;;1.20;0.90;;;17.00;99.90;;;;;;5116536;28;20556;-69
2024/04/04 10:55:17;;;;;;;2.53;0.80;;;17.10;99.90;;;;;;5116403;28;20438;-70
2024/04/04 10:57:45;;;;;;;3.70;0.90;;;17.00;99.90;;;;;;5116297;28;20536;-69
2024/04/04 11:00:13;;;;;;;1.93;0.90;;;17.00;99.90;;;;;;5116178;28;20547;-69
2024/04/04 11:02:44;;;;;;;2.40;1.00;;;17.00;99.90;;;;;;5116158;27;20817;-69
2024/04/04 11:05:11;;;;;;;3.43;0.97;;;16.90;99.90;;;;;;5116355;28;20524;-69
2024/04/04 11:07:38;;;;;;;3.00;1.10;;;16.70;99.90;;;;;;5116123;28;20904;-67
2024/04/04 11:10:05;;;;;;;1.00;0.70;;;16.60;99.90;;;;;;5116176;28;20528;-67
2024/04/04 11:12:32;;;;;;;1.90;0.70;;;16.40;99.90;;;;;;5116109;28;20839;-66
2024/04/04 11:14:59;;;;;;;2.17;0.83;;;16.50;99.90;;;;;;5115968;28;20535;-67
2024/04/04 11:17:25;;;;;;;2.10;0.90;;;16.50;99.90;;;;;;5116360;28;20550;-65
2024/04/04 11:20:01;;;;;;;1.00;0.80;;;16.50;99.90;;;;;;5116015;28;20491;-65
2024/04/04 11:22:28;;;;;;;1.60;1.50;;;16.40;99.90;;;;;;5115932;28;20588;-66
2024/04/04 11:24:54;;;;;;;2.30;1.10;;;16.30;99.90;;;;;;5115749;28;20448;-66
2024/04/04 11:27:20;;;;;;;3.00;1.10;;;16.10;99.90;;;;;;5115634;28;20569;-66
2024/04/04 11:29:46;;;;;;;2.30;1.00;;;15.90;99.90;;;;;;5115539;28;20184;-66
2024/04/04 11:32:12;;;;;;;2.33;1.00;;;15.60;99.90;;;;;;5115596;28;20547;-66
2024/04/04 11:34:38;;;;;;;1.63;0.93;;;15.30;99.90;;;;;;5115681;28;20520;-65
2024/04/04 11:37:05;;;;;;;4.60;1.60;;;15.30;99.90;;;;;;5115624;28;20536;-66
2024/04/04 11:39:32;;;;;;;4.10;1.00;;;15.20;99.90;;;;;;5115841;28;20293;-66
2024/04/04 11:41:58;;;;;;;3.30;1.10;;;15.30;99.90;;;;;;5115447;28;20457;-66
2024/04/04 11:44:25;;;;;;;1.67;1.00;;;15.20;99.90;;;;;;5115329;28;20800;-65
2024/04/04 11:46:51;;;;;;;3.20;1.30;;;15.20;99.90;;;;;;5115182;28;20492;-66
2024/04/04 11:49:18;;;;;;;1.30;1.20;;;15.00;99.90;;;;;;5115350;28;20533;-65
2024/04/04 11:51:45;;;;;;;2.57;1.20;;;15.00;99.90;;;;;;5115310;28;20480;-66
2024/04/04 11:54:10;;;;;;;1.60;1.07;;;15.10;99.90;;;;;;5115491;28;20534;-66
2024/04/04 11:56:40;;;;;;;2.80;1.10;;;15.20;99.90;;;;;;5115051;28;20556;-65
2024/04/04 11:59:06;;;;;;;1.70;1.00;;;15.30;99.90;;;;;;5114835;28;20188;-65
2024/04/04 12:01:32;;;;;;;2.50;1.20;;;15.20;99.90;;;;;;5115167;28;20646;-65
2024/04/04 12:03:58;;;;;;;1.40;1.13;;;15.20;99.90;;;;;;5115098;28;20222;-67
2024/04/04 12:06:25;;;;;;;2.70;1.10;;;15.30;99.90;;;;;;5114998;28;20477;-66
2024/04/04 12:08:51;;;;;;;1.00;0.83;;;15.40;99.90;;;;;;5114578;28;20195;-65
2024/04/04 12:11:17;;;;;;;3.27;1.10;;;15.50;99.90;;;;;;5114843;28;20463;-67
2024/04/04 12:13:44;;;;;;;4.50;1.00;;;15.40;99.90;;;;;;5114853;28;20473;-65
2024/04/04 12:16:11;;;;;;;2.90;1.00;;;15.40;99.90;;;;;;5114984;28;20457;-66
2024/04/04 12:21:22;;;;;;;2.93;1.30;;;15.30;99.90;;;;;;5114786;28;20436;-66
2024/04/04 12:23:48;;;;;;;2.93;1.10;;;15.20;99.90;;;;;;5114769;28;20533;-66
2024/04/04 12:26:15;;;;;;;1.80;0.90;;;15.20;99.90;;;;;;5114690;28;20535;-66
2024/04/04 12:28:41;;;;;;;1.80;0.93;;;15.20;99.90;;;;;;5114521;28;20540;-66
2024/04/04 12:31:10;;;;;;;2.87;1.20;;;15.30;99.90;;;;;;5114932;28;20865;-65
2024/04/04 12:33:36;;;;;;;2.20;1.43;;;15.40;99.90;;;;;;5114605;28;20927;-66
2024/04/04 12:36:02;;;;;;;3.53;1.50;;;15.20;99.90;;;;;;5114385;28;20466;-65
2024/04/04 12:38:28;;;;;;;1.63;1.20;;;15.20;99.90;;;;;;5114286;28;20277;-65
2024/04/04 12:40:54;;;;;;;1.10;1.00;;;15.20;99.90;;;;;;5114483;28;20974;-65
2024/04/04 12:43:20;;;;;;;2.57;1.60;;;15.30;99.90;;;;;;5114380;28;20283;-65
2024/04/04 12:45:46;;;;;;;2.23;1.40;;;15.40;99.90;;;;;;5114209;28;20581;-65
2024/04/04 12:48:13;;;;;;;2.00;1.40;;;15.30;99.90;;;;;;5114543;28;20226;-66
2024/04/04 12:50:40;;;;;;;3.13;1.30;;;15.20;99.90;;;;;;5114148;28;20509;-65